Darstellungsparameter: Aktuell verwendete Einstellungen:
Skalierung der Graphiken ... ?
xyx+y,   Skalierungsfaktor:      Skalierung: Modus: x, Faktor: 1
Darstellungszeitraum ... ?
Vom - - bis: - -   Zeitraum: 25.04.2015 - 24.04.2020
Min/Max/Avg-Anzeige ... ?
Zeige MMA aktuell
Zeige MMA Monat
Zeige MMA alles
Zeige --A aktuell
Zeige --A Monat
Zeige --A alles
Keine MMA-Anzeige
MMA:
Keine MMA-Graphiken
MMA-Basis: 25.04.2015 - 24.04.2020
Quicknavigation für Darstellung... ?
Tage:      1T, 2T, 3T, 5T -1T -2T -3T -5T +1T +2T +3T +5T
Wochen: 1W, 2W, 3W -1W -2W -3W +1W +2W +3W
Monate: 1M, 3M, 6M -1M -3M -6M +1M +3M +6M
Jahre:    1J, 3J, 5J, 10J -1J -3J -5J -10J +1J +3J +5J +10J
Nutze für die Darstellung ... ?
Originaldaten oder ...
Mittelwerte Minima Maxima auf...
Stundenbasis Tagesbasis Wochenbasis
Monatsbasis Jahresbasis      Datenbasis: Mittelwerte auf Monatsbasis
Darstellen als:
Statistik (Auto) Statistik J:M      Darstellung:
Zur Graphik,    zurück zur Übersicht aller Sensoren.
 
Tabellarische Datenbersicht: ?
 
Sensor: Nr:Datum:Temp:Abs-Feuchte:Windchill:Wind:
Aussen-T/F 1 01-04-2015 00:00:00 10.36598 C 6.9 g/m*3 9.99 C 5.6218 km/h
2 01-05-2015 00:00:00 14.07531 C 8.87 g/m*3 14.08 C 4.63949 km/h
3 01-06-2015 00:00:00 17.29228 C 10.81 g/m*3 17.29 C 4.45188 km/h
4 01-07-2015 00:00:00 21.37994 C 12.75 g/m*3 21.38 C 5.86635 km/h
5 01-08-2015 00:00:00 20.33613 C 13.15 g/m*3 20.34 C 3.87033 km/h
6 01-09-2015 00:00:00 13.69299 C 10.13 g/m*3 13.69 C 2.94774 km/h
7 01-10-2015 00:00:00 9.51401 C 8.23 g/m*3 9.51 C 1.48259 km/h
8 01-11-2015 00:00:00 8.865 C 7.83 g/m*3 7.87 C 7.14152 km/h
9 01-12-2015 00:00:00 7.80433 C 7.53 g/m*3 7.8 C 4.54159 km/h
10 01-01-2016 00:00:00 3.98089 C 5.75 g/m*3 2.75 C 5.45761 km/h
11 01-02-2016 00:00:00 4.85946 C 5.82 g/m*3 3.18 C 7.23871 km/h
12 01-03-2016 00:00:00 5.35347 C 5.83 g/m*3 4.45 C 5.09736 km/h
13 01-04-2016 00:00:00 9.1925 C 6.93 g/m*3 8.62 C 5.72023 km/h
14 01-05-2016 00:00:00 14.42697 C 9.47 g/m*3 14.43 C 4.35057 km/h
15 01-06-2016 00:00:00 17.47186 C 12.74 g/m*3 17.47 C 3.24235 km/h
16 01-07-2016 00:00:00 19.3988 C 13.49 g/m*3 19.4 C 3.1753 km/h
17 01-08-2016 00:00:00 18.44104 C 12.77 g/m*3 18.44 C 3.05942 km/h
18 01-09-2016 00:00:00 17.14113 C 11.94 g/m*3 17.14 C 2.24039 km/h
19 01-10-2016 00:00:00 9.46091 C 8.42 g/m*3 9.46 C 1.72234 km/h
20 01-11-2016 00:00:00 5.51435 C 6.48 g/m*3 5.51 C 3.28757 km/h
21 01-12-2016 00:00:00 3.09223 C 5.52 g/m*3 3.09 C 3.37586 km/h
22 01-01-2017 00:00:00 -0.81853 C 4.17 g/m*3 -0.82 C 3.55448 km/h
23 01-02-2017 00:00:00 5.07645 C 5.99 g/m*3 4.06 C 5.28782 km/h
24 01-03-2017 00:00:00 8.9644 C 6.89 g/m*3 8.34 C 5.77527 km/h
25 01-04-2017 00:00:00 9.01126 C 6.37 g/m*3 8.58 C 5.18128 km/h
Sensor: Nr:Datum:Temp:Abs-Feuchte:Windchill:Wind:
Aussen-T/F 26 01-05-2017 00:00:00 15.43007 C 10.26 g/m*3 15.43 C 3.35974 km/h
27 01-06-2017 00:00:00 19.3085 C 12.22 g/m*3 19.31 C 4.6192 km/h
28 01-07-2017 00:00:00 19.40309 C 13.35 g/m*3 19.4 C 4.06978 km/h
29 01-08-2017 00:00:00 18.15116 C 13.41 g/m*3 18.15 C 2.04663 km/h
30 01-09-2017 00:00:00 13.52826 C 10.51 g/m*3 13.53 C 2.46147 km/h
31 01-10-2017 00:00:00 11.9519 C 9.61 g/m*3 11.95 C 3.78291 km/h
32 01-11-2017 00:00:00 6.29456 C 6.83 g/m*3 6.29 C 4.69471 km/h
33 01-12-2017 00:00:00 4.62593 C 6.07 g/m*3 3.38 C 5.75049 km/h
34 01-01-2018 00:00:00 6.22071 C 6.63 g/m*3 5.01 C 6.36804 km/h
35 01-02-2018 00:00:00 -0.11999 C 3.96 g/m*3 -0.12 C 4.59001 km/h
36 01-03-2018 00:00:00 4.77696 C 5.52 g/m*3 3.69 C 5.37273 km/h
37 01-04-2018 00:00:00 13.19043 C 8.63 g/m*3 13.19 C 4.20133 km/h
38 01-05-2018 00:00:00 16.37003 C 10.67 g/m*3 16.37 C 3.69387 km/h
39 01-06-2018 00:00:00 18.967 C 12.53 g/m*3 18.97 C 4.53634 km/h
40 01-07-2018 00:00:00 21.42659 C 12.39 g/m*3 21.43 C 4.11955 km/h
41 01-08-2018 00:00:00 20.34943 C 12.31 g/m*3 20.35 C 3.96984 km/h
42 01-09-2018 00:00:00 15.07657 C 10.05 g/m*3 15.08 C 2.81324 km/h
43 01-10-2018 00:00:00 11.07636 C 8.74 g/m*3 11.08 C 2.7653 km/h
44 01-11-2018 00:00:00 6.5436 C 6.84 g/m*3 6.54 C 1.90036 km/h
45 01-12-2018 00:00:00 5.47462 C 6.37 g/m*3 4.57 C 5.14704 km/h
46 01-01-2019 00:00:00 2.43693 C 5.17 g/m*3 0.66 C 6.31666 km/h
47 01-02-2019 00:00:00 4.63271 C 5.71 g/m*3 4.63 C 3.62237 km/h
48 01-03-2019 00:00:00 7.92933 C 6.64 g/m*3 6.5 C 8.32276 km/h
49 01-04-2019 00:00:00 10.85221 C 7.4 g/m*3 10.85 C 4.33999 km/h
50 01-05-2019 00:00:00 12.33311 C 8.53 g/m*3 12.33 C 4.44611 km/h
Sensor: Nr:Datum:Temp:Abs-Feuchte:Windchill:Wind:
Aussen-T/F 51 01-06-2019 00:00:00 20.40694 C 12.64 g/m*3 20.41 C 4.36668 km/h
52 01-07-2019 00:00:00 20.12832 C 12.01 g/m*3 20.13 C 4.35068 km/h
53 01-08-2019 00:00:00 19.47061 C 12.94 g/m*3 19.47 C 3.40195 km/h
54 01-09-2019 00:00:00 14.78313 C 10.18 g/m*3 14.78 C 3.65661 km/h
55 01-10-2019 00:00:00 11.57957 C 9.53 g/m*3 11.58 C 2.52258 km/h
56 01-11-2019 00:00:00 5.97003 C 6.74 g/m*3 5.97 C 2.68162 km/h
57 01-12-2019 00:00:00 4.99817 C 6.27 g/m*3 5 C 4.24479 km/h
58 01-01-2020 00:00:00 5.2294 C 6.26 g/m*3 5.23 C 4.46112 km/h
59 01-02-2020 00:00:00 6.71149 C 6.43 g/m*3 4.78 C 9.62326 km/h
60 01-03-2020 00:00:00 7.34168 C 5.99 g/m*3 6.06 C 7.29528 km/h
61 01-04-2020 00:00:00 11.69861 C 6.66 g/m*3 11.7 C 4.78924 km/h

Maximal/Minimal-Werte vom 25.04.2015 - 24.04.2020

Sensor Min Max Avg
Temp
(Aussen-T/F)
-10.6 °C
22-01-2017  07:55:00
40.4 °C
25-07-2019  16:20:00
11.31 °C
Abs-Feuchte
(Aussen-T/F)
3.96 g/m*3
01-02-2018  00:00:00
13.49 g/m*3
01-07-2016  00:00:00
8.56 g/m*3
Windchill
(Aussen-T/F)
-0.82 C
01-01-2017  00:00:00
21.43 C
01-07-2018  00:00:00
10.8 C

Die Daten stammen von einer Davis Vantage Pro 2 Wetter-Station und werden unter Linux mit der Software wview2wettercgi und aufbereitet. Alle Angaben erfolgen ohne Gewähr für ihre Vollständigkeit oder Richtigkeit.
Kontakt: Rainer Krienke krienke@uni-koblenz.de . Meine Webseiten an der Uni Koblenz oder privat.
Version: $Revision: 0.78 $